Accueil
METAR-TAF:

METAR-TAF

Aéroports :

Geilenkirchen, Allemagne

latitude: 50-57-39N, longitude: 006-2-33E, altitude: 90 m

Observation

Le bulletin a été fait il y a 58 minutes, à 15:50 UTC
Vent 3 kt de est
Température 24°C
Humidité 47%
Pression 1019 hPa
Visibilité 10 km ou plus
pas de nuages en-dessous de 1500 mètres et pas de cumulonimbus.

METAR: ETNG 221550Z 09003KT CAVOK 24/12 Q1019 NOSIG

Heure: 18:48 (16:48 UTC)

Prévision

Le bulletin a été fait il y a 2 heures et 48 minutes, à 14:00 UTC
Prévision valable du 22 à 15 UTC au 23 à 06 UTC
Vent 5 kt de est/nord-est
Visibilité 10 km ou plus
pas de nuages en-dessous de 1500 mètres et pas de cumulonimbus.

TAF: ETNG 221400Z 2215/2306 07005KT CAVOK

Observations et prévisions météorologiques de plus de 4000 aéroports (messages METAR et TAF).

Les stations disponibles sont représentées par des disques jaunes et rouges sur la carte.

Passer la souris dessus pour voir le nom de la station.

Cliquer dessus pour voir les observations et prévisions météorologiques.

Pour changer de carte: cliquez sur les boutons verts avec une croix noire pour zoomer, sur le bouton vert avec un tiret pour effectuer un zoom arrière, ou sur les flèches vertes pour les cartes adjacentes.


METAR-TAF: